Time,TemperatureF,DewpointF,PressureIn,WindDirection,WindDirectionDegrees,WindSpeedMPH,WindSpeedGustMPH,Humidity,HourlyPrecipIn,Conditions,Clouds,dailyrainin,SoftwareType,DateUTC
2013-02-10 00:02:00,10.0,3.0,30.30,WNW,294,2.0,-999.0,74,-99.99,,,0.00,weatherlink.com 1.10,2013-02-10 05:02:00,
2013-02-10 00:17:00,10.0,3.0,30.31,NNW,329,5.0,-999.0,74,-99.99,,,0.00,weatherlink.com 1.10,2013-02-10 05:17:00,
2013-02-10 00:32:00,10.0,3.0,30.31,NW,314,5.0,-999.0,73,-99.99,,,0.00,weatherlink.com 1.10,2013-02-10 05:32:00,
2013-02-10 00:47:00,9.9,3.0,30.31,NNW,328,4.0,-999.0,73,-99.99,,,0.00,weatherlink.com 1.10,2013-02-10 05:47:00,
2013-02-10 01:02:00,9.9,3.0,30.31,NW,319,2.0,-999.0,74,-99.99,,,0.00,weatherlink.com 1.10,2013-02-10 06:02:00,
2013-02-10 01:17:00,9.9,3.0,30.32,WNW,298,2.0,-999.0,73,-99.99,,,0.00,weatherlink.com 1.10,2013-02-10 06:17:00,
2013-02-10 01:32:00,9.8,2.0,30.32,NNW,327,5.0,-999.0,72,-99.99,,,0.00,weatherlink.com 1.10,2013-02-10 06:32:00,
2013-02-10 01:47:00,9.5,2.0,30.32,NW,317,4.0,-999.0,72,-99.99,,,0.00,weatherlink.com 1.10,2013-02-10 06:47:00,
2013-02-10 02:02:00,9.6,2.0,30.32,NW,324,8.0,-999.0,71,-99.99,,,0.00,weatherlink.com 1.10,2013-02-10 07:02:00,
2013-02-10 02:17:00,9.7,2.0,30.33,NNW,348,9.0,-999.0,71,-99.99,,,0.00,weatherlink.com 1.10,2013-02-10 07:17:00,
2013-02-10 02:32:00,9.5,2.0,30.33,North,355,7.0,-999.0,71,-99.99,,,0.00,weatherlink.com 1.10,2013-02-10 07:32:00,
2013-02-10 02:47:00,9.6,2.0,30.32,NNW,340,6.0,-999.0,70,-99.99,,,0.00,weatherlink.com 1.10,2013-02-10 07:47:00,
2013-02-10 03:02:00,9.6,2.0,30.34,NNW,338,3.0,-999.0,70,-99.99,,,0.00,weatherlink.com 1.10,2013-02-10 08:02:00,
2013-02-10 03:18:00,9.5,2.0,30.34,NW,316,1.0,-999.0,70,-99.99,,,0.00,weatherlink.com 1.10,2013-02-10 08:18:00,
2013-02-10 03:32:00,9.2,1.0,30.35,NW,321,1.0,-999.0,69,-99.99,,,0.00,weatherlink.com 1.10,2013-02-10 08:32:00,
2013-02-10 03:47:00,9.2,1.0,30.34,NNW,331,3.0,-999.0,69,-99.99,,,0.00,weatherlink.com 1.10,2013-02-10 08:47:00,
2013-02-10 04:02:00,8.9,1.0,30.35,NW,306,6.0,-999.0,69,-99.99,,,0.00,weatherlink.com 1.10,2013-02-10 09:02:00,
2013-02-10 04:17:00,9.0,1.0,30.35,NNW,331,4.0,-999.0,69,-99.99,,,0.00,weatherlink.com 1.10,2013-02-10 09:17:00,
2013-02-10 04:33:00,9.4,0.0,30.35,NNW,341,7.0,-999.0,67,-99.99,,,0.00,weatherlink.com 1.10,2013-02-10 09:33:00,
2013-02-10 04:48:00,9.9,0.0,30.34,NNW,338,13.0,-999.0,65,-99.99,,,0.00,weatherlink.com 1.10,2013-02-10 09:48:00,
2013-02-10 05:03:00,10.4,0.0,30.34,North,355,9.0,-999.0,64,-99.99,,,0.00,weatherlink.com 1.10,2013-02-10 10:03:00,
2013-02-10 05:18:00,10.8,0.0,30.34,NW,316,9.0,-999.0,62,-99.99,,,0.00,weatherlink.com 1.10,2013-02-10 10:18:00,
2013-02-10 05:33:00,10.8,0.0,30.36,North,355,5.0,-999.0,62,-99.99,,,0.00,weatherlink.com 1.10,2013-02-10 10:33:00,
2013-02-10 05:48:00,10.4,0.0,30.37,North,355,1.0,-999.0,63,-99.99,,,0.00,weatherlink.com 1.10,2013-02-10 10:48:00,
2013-02-10 06:03:00,10.1,0.0,30.38,North,355,0.0,-999.0,64,-99.99,,,0.00,weatherlink.com 1.10,2013-02-10 11:03:00,
2013-02-10 06:18:00,9.8,0.0,30.39,ESE,106,0.0,-999.0,64,-99.99,,,0.00,weatherlink.com 1.10,2013-02-10 11:18:00,
2013-02-10 06:33:00,9.3,-1.0,30.40,NNE,24,0.0,-999.0,64,-99.99,,,0.00,weatherlink.com 1.10,2013-02-10 11:33:00,
2013-02-10 06:49:00,9.2,0.0,30.40,NNW,342,0.0,-999.0,65,-99.99,,,0.00,weatherlink.com 1.10,2013-02-10 11:49:00,
2013-02-10 07:03:00,8.9,0.0,30.42,NNW,342,1.0,-999.0,66,-99.99,,,0.00,weatherlink.com 1.10,2013-02-10 12:03:00,
2013-02-10 07:18:00,8.6,-1.0,30.42,NNW,342,0.0,-999.0,65,-99.99,,,0.00,weatherlink.com 1.10,2013-02-10 12:18:00,
2013-02-10 07:33:00,8.1,-1.0,30.43,NNW,342,0.0,-999.0,66,-99.99,,,0.00,weatherlink.com 1.10,2013-02-10 12:33:00,
2013-02-10 07:48:00,8.6,0.0,30.44,NNW,327,4.0,-999.0,67,-99.99,,,0.00,weatherlink.com 1.10,2013-02-10 12:48:00,
2013-02-10 08:04:00,10.4,1.0,30.44,NW,306,3.0,-999.0,66,-99.99,,,0.00,weatherlink.com 1.10,2013-02-10 13:04:00,
2013-02-10 08:19:00,12.1,2.0,30.44,WNW,299,3.0,-999.0,63,-99.99,,,0.00,weatherlink.com 1.10,2013-02-10 13:19:00,
2013-02-10 08:34:00,13.1,2.0,30.44,NNW,343,2.0,-999.0,60,-99.99,,,0.00,weatherlink.com 1.10,2013-02-10 13:34:00,
2013-02-10 08:49:00,13.5,2.0,30.44,NNW,341,5.0,-999.0,60,-99.99,,,0.00,weatherlink.com 1.10,2013-02-10 13:49:00,
2013-02-10 09:04:00,14.3,2.0,30.44,NW,323,0.0,-999.0,59,-99.99,,,0.00,weatherlink.com 1.10,2013-02-10 14:04:00,
2013-02-10 09:19:00,15.3,2.0,30.45,WNW,291,3.0,-999.0,57,-99.99,,,0.00,weatherlink.com 1.10,2013-02-10 14:19:00,
2013-02-10 09:34:00,15.5,2.0,30.46,North,355,9.0,-999.0,56,-99.99,,,0.00,weatherlink.com 1.10,2013-02-10 14:34:00,
2013-02-10 09:49:00,15.9,2.0,30.45,NNW,340,10.0,-999.0,55,-99.99,,,0.00,weatherlink.com 1.10,2013-02-10 14:49:00,
2013-02-10 10:04:00,16.8,3.0,30.45,NNW,342,7.0,-999.0,56,-99.99,,,0.00,weatherlink.com 1.10,2013-02-10 15:04:00,
2013-02-10 10:19:00,17.6,3.0,30.46,NNW,336,5.0,-999.0,54,-99.99,,,0.00,weatherlink.com 1.10,2013-02-10 15:19:00,
2013-02-10 10:34:00,18.4,4.0,30.46,WNW,301,0.0,-999.0,54,-99.99,,,0.00,weatherlink.com 1.10,2013-02-10 15:34:00,
2013-02-10 10:49:00,19.3,5.0,30.46,NNW,342,2.0,-999.0,53,-99.99,,,0.00,weatherlink.com 1.10,2013-02-10 15:49:00,
2013-02-10 11:04:00,19.7,5.0,30.47,NNW,343,3.0,-999.0,53,-99.99,,,0.00,weatherlink.com 1.10,2013-02-10 16:04:00,
2013-02-10 11:20:00,19.6,5.0,30.46,NW,307,3.0,-999.0,54,-99.99,,,0.00,weatherlink.com 1.10,2013-02-10 16:20:00,
2013-02-10 11:35:00,21.1,5.0,30.45,NW,325,4.0,-999.0,51,-99.99,,,0.00,weatherlink.com 1.10,2013-02-10 16:35:00,
2013-02-10 11:50:00,22.0,5.0,30.44,NW,317,3.0,-999.0,49,-99.99,,,0.00,weatherlink.com 1.10,2013-02-10 16:50:00,
2013-02-10 12:05:00,23.0,7.0,30.43,NNW,331,2.0,-999.0,50,-99.99,,,0.00,weatherlink.com 1.10,2013-02-10 17:05:00,
2013-02-10 12:20:00,24.3,7.0,30.42,NNW,337,1.0,-999.0,48,-99.99,,,0.00,weatherlink.com 1.10,2013-02-10 17:20:00,
2013-02-10 12:35:00,25.3,7.0,30.42,NW,317,0.0,-999.0,46,-99.99,,,0.00,weatherlink.com 1.10,2013-02-10 17:35:00,
2013-02-10 12:50:00,26.3,6.0,30.41,WNW,282,3.0,-999.0,43,-99.99,,,0.00,weatherlink.com 1.10,2013-02-10 17:50:00,
2013-02-10 13:05:00,27.1,8.0,30.41,NNW,328,0.0,-999.0,44,-99.99,,,0.00,weatherlink.com 1.10,2013-02-10 18:05:00,
2013-02-10 13:20:00,27.9,7.0,30.40,WNW,284,2.0,-999.0,42,-99.99,,,0.00,weatherlink.com 1.10,2013-02-10 18:20:00,
2013-02-10 13:35:00,28.3,8.0,30.39,NNW,329,0.0,-999.0,43,-99.99,,,0.00,weatherlink.com 1.10,2013-02-10 18:35:00,
2013-02-10 13:51:00,29.3,9.0,30.39,NNW,329,0.0,-999.0,42,-99.99,,,0.01,weatherlink.com 1.10,2013-02-10 18:51:00,
2013-02-10 14:05:00,29.8,8.0,30.39,SW,217,3.0,-999.0,40,-99.99,,,0.01,weatherlink.com 1.10,2013-02-10 19:05:00,
2013-02-10 14:20:00,31.0,9.0,30.39,WSW,248,1.0,-999.0,39,-99.99,,,0.01,weatherlink.com 1.10,2013-02-10 19:20:00,
2013-02-10 14:35:00,32.6,8.0,30.39,WSW,248,0.0,-999.0,36,-99.99,,,0.01,weatherlink.com 1.10,2013-02-10 19:35:00,
2013-02-10 14:50:00,32.8,7.0,30.41,West,260,2.0,-999.0,34,-99.99,,,0.01,weatherlink.com 1.10,2013-02-10 19:50:00,
2013-02-10 15:06:00,31.6,6.0,30.40,NW,306,0.0,-999.0,34,-99.99,,,0.02,weatherlink.com 1.10,2013-02-10 20:06:00,
2013-02-10 15:21:00,32.2,11.0,30.38,NW,306,0.0,-999.0,41,-99.99,,,0.02,weatherlink.com 1.10,2013-02-10 20:21:00,
2013-02-10 15:36:00,32.9,8.0,30.38,NW,306,0.0,-999.0,35,-99.99,,,0.02,weatherlink.com 1.10,2013-02-10 20:36:00,
2013-02-10 15:51:00,31.7,8.0,30.36,NW,311,0.0,-999.0,37,-99.99,,,0.02,weatherlink.com 1.10,2013-02-10 20:51:00,
2013-02-10 16:21:00,31.0,12.0,30.36,NW,311,0.0,-999.0,46,-99.99,,,0.02,weatherlink.com 1.10,2013-02-10 21:21:00,
2013-02-10 16:36:00,30.2,13.0,30.37,NW,311,0.0,-999.0,50,-99.99,,,0.02,weatherlink.com 1.10,2013-02-10 21:36:00,
2013-02-10 16:51:00,28.2,11.0,30.37,NW,311,0.0,-999.0,49,-99.99,,,0.02,weatherlink.com 1.10,2013-02-10 21:51:00,
2013-02-10 17:06:00,25.9,12.0,30.37,NW,311,0.0,-999.0,55,-99.99,,,0.02,weatherlink.com 1.10,2013-02-10 22:06:00,
2013-02-10 17:21:00,23.9,11.0,30.36,NW,311,0.0,-999.0,58,-99.99,,,0.02,weatherlink.com 1.10,2013-02-10 22:21:00,
2013-02-10 17:37:00,22.0,10.0,30.36,NW,311,0.0,-999.0,60,-99.99,,,0.02,weatherlink.com 1.10,2013-02-10 22:37:00,
2013-02-10 17:52:00,19.6,7.0,30.36,NW,311,0.0,-999.0,59,-99.99,,,0.02,weatherlink.com 1.10,2013-02-10 22:52:00,
2013-02-10 18:07:00,17.7,7.0,30.37,NW,311,0.0,-999.0,62,-99.99,,,0.02,weatherlink.com 1.10,2013-02-10 23:07:00,
2013-02-10 18:22:00,16.1,6.0,30.37,NW,311,0.0,-999.0,65,-99.99,,,0.02,weatherlink.com 1.10,2013-02-10 23:22:00,
2013-02-10 18:37:00,14.8,5.0,30.37,NW,311,0.0,-999.0,66,-99.99,,,0.02,weatherlink.com 1.10,2013-02-10 23:37:00,
2013-02-10 18:52:00,13.6,5.0,30.36,NW,311,0.0,-999.0,68,-99.99,,,0.02,weatherlink.com 1.10,2013-02-10 23:52:00,
2013-02-10 19:07:00,12.6,5.0,30.36,NW,311,0.0,-999.0,71,-99.99,,,0.02,weatherlink.com 1.10,2013-02-11 00:07:00,
2013-02-10 19:22:00,11.7,4.0,30.36,NW,311,0.0,-999.0,71,-99.99,,,0.02,weatherlink.com 1.10,2013-02-11 00:22:00,
2013-02-10 19:37:00,10.9,3.0,30.36,NW,311,0.0,-999.0,71,-99.99,,,0.02,weatherlink.com 1.10,2013-02-11 00:37:00,
2013-02-10 19:52:00,10.4,3.0,30.36,NW,311,0.0,-999.0,73,-99.99,,,0.02,weatherlink.com 1.10,2013-02-11 00:52:00,
2013-02-10 20:07:00,9.9,3.0,30.36,NW,311,0.0,-999.0,74,-99.99,,,0.02,weatherlink.com 1.10,2013-02-11 01:07:00,
2013-02-10 20:22:00,9.8,3.0,30.36,NW,311,0.0,-999.0,75,-99.99,,,0.02,weatherlink.com 1.10,2013-02-11 01:22:00,
2013-02-10 20:37:00,9.6,4.0,30.36,NW,311,0.0,-999.0,76,-99.99,,,0.02,weatherlink.com 1.10,2013-02-11 01:37:00,
2013-02-10 20:52:00,9.5,4.0,30.35,NW,311,0.0,-999.0,77,-99.99,,,0.02,weatherlink.com 1.10,2013-02-11 01:52:00,
2013-02-10 21:07:00,9.7,4.0,30.34,NW,311,0.0,-999.0,78,-99.99,,,0.02,weatherlink.com 1.10,2013-02-11 02:07:00,
2013-02-10 21:23:00,10.0,4.0,30.33,NW,311,0.0,-999.0,78,-99.99,,,0.02,weatherlink.com 1.10,2013-02-11 02:23:00,
2013-02-10 21:37:00,10.5,5.0,30.34,NW,311,0.0,-999.0,77,-99.99,,,0.02,weatherlink.com 1.10,2013-02-11 02:37:00,
2013-02-10 21:53:00,11.3,6.0,30.33,NW,311,0.0,-999.0,78,-99.99,,,0.02,weatherlink.com 1.10,2013-02-11 02:53:00,
2013-02-10 22:08:00,12.1,6.0,30.34,NW,311,0.0,-999.0,77,-99.99,,,0.02,weatherlink.com 1.10,2013-02-11 03:08:00,
2013-02-10 22:23:00,12.8,6.0,30.33,NW,311,0.0,-999.0,75,-99.99,,,0.02,weatherlink.com 1.10,2013-02-11 03:23:00,
2013-02-10 22:38:00,13.6,7.0,30.33,NW,311,0.0,-999.0,75,-99.99,,,0.02,weatherlink.com 1.10,2013-02-11 03:38:00,
2013-02-10 22:53:00,15.0,8.0,30.32,NW,311,0.0,-999.0,73,-99.99,,,0.02,weatherlink.com 1.10,2013-02-11 03:53:00,
2013-02-10 23:08:00,17.9,8.0,30.31,SE,146,1.0,-999.0,65,-99.99,,,0.02,weatherlink.com 1.10,2013-02-11 04:08:00,
2013-02-10 23:24:00,21.4,9.0,30.31,SE,138,2.0,-999.0,58,-99.99,,,0.02,weatherlink.com 1.10,2013-02-11 04:24:00,
2013-02-10 23:38:00,23.1,10.0,30.32,SE,137,1.0,-999.0,57,-99.99,,,0.02,weatherlink.com 1.10,2013-02-11 04:38:00,
2013-02-10 23:53:00,24.1,11.0,30.31,SSE,153,0.0,-999.0,58,-99.99,,,0.02,weatherlink.com 1.10,2013-02-11 04:53:00,